sensor_id;sensor_type;location;lat;lon;timestamp;pressure;altitude;pressure_sealevel;temperature;humidity
39443;BME280;25147;52.142;9.960;2024-02-26T00:00:23;99279.00;;;1.65;100.00
39443;BME280;25147;52.142;9.960;2024-02-26T00:02:50;99260.03;;;1.46;100.00
39443;BME280;25147;52.142;9.960;2024-02-26T00:05:18;99266.09;;;1.57;100.00
39443;BME280;25147;52.142;9.960;2024-02-26T00:07:44;99263.50;;;1.57;100.00
39443;BME280;25147;52.142;9.960;2024-02-26T00:10:13;99231.66;;;1.40;100.00
39443;BME280;25147;52.142;9.960;2024-02-26T00:12:40;99278.97;;;1.67;100.00
39443;BME280;25147;52.142;9.960;2024-02-26T00:15:09;99263.50;;;1.57;100.00
39443;BME280;25147;52.142;9.960;2024-02-26T00:17:36;99267.81;;;1.68;100.00
39443;BME280;25147;52.142;9.960;2024-02-26T00:20:04;99237.69;;;1.50;100.00
39443;BME280;25147;52.142;9.960;2024-02-26T00:22:35;99263.50;;;1.67;100.00
39443;BME280;25147;52.142;9.960;2024-02-26T00:25:03;99248.88;;;1.59;100.00
39443;BME280;25147;52.142;9.960;2024-02-26T00:27:30;99268.66;;;1.68;100.00
39443;BME280;25147;52.142;9.960;2024-02-26T00:29:57;99266.97;;;1.67;100.00
39443;BME280;25147;52.142;9.960;2024-02-26T00:32:24;99270.38;;;1.66;100.00
39443;BME280;25147;52.142;9.960;2024-02-26T00:34:50;99246.28;;;1.44;100.00
39443;BME280;25147;52.142;9.960;2024-02-26T00:37:17;99254.88;;;1.52;100.00
39443;BME280;25147;52.142;9.960;2024-02-26T00:39:45;99198.94;;;1.11;100.00
39443;BME280;25147;52.142;9.960;2024-02-26T00:42:12;99264.38;;;1.59;100.00
39443;BME280;25147;52.142;9.960;2024-02-26T00:44:39;99266.06;;;1.50;100.00
39443;BME280;25147;52.142;9.960;2024-02-26T00:47:06;99220.47;;;1.23;100.00
39443;BME280;25147;52.142;9.960;2024-02-26T00:49:33;99270.38;;;1.57;100.00
39443;BME280;25147;52.142;9.960;2024-02-26T00:51:59;99263.50;;;1.53;100.00
39443;BME280;25147;52.142;9.960;2024-02-26T00:54:26;99179.19;;;1.07;100.00
39443;BME280;25147;52.142;9.960;2024-02-26T00:56:54;99248.03;;;1.51;100.00
39443;BME280;25147;52.142;9.960;2024-02-26T00:59:21;99246.31;;;1.49;100.00
39443;BME280;25147;52.142;9.960;2024-02-26T01:01:48;99249.72;;;1.58;100.00
39443;BME280;25147;52.142;9.960;2024-02-26T01:04:15;99267.81;;;1.72;100.00
39443;BME280;25147;52.142;9.960;2024-02-26T01:06:41;99269.53;;;1.73;100.00
39443;BME280;25147;52.142;9.960;2024-02-26T01:09:08;99251.47;;;1.63;100.00
39443;BME280;25147;52.142;9.960;2024-02-26T01:11:35;99211.91;;;1.44;100.00
39443;BME280;25147;52.142;9.960;2024-02-26T01:14:03;99263.53;;;1.71;100.00
39443;BME280;25147;52.142;9.960;2024-02-26T01:16:30;99257.50;;;1.78;100.00
39443;BME280;25147;52.142;9.960;2024-02-26T01:18:57;99248.03;;;1.62;100.00
39443;BME280;25147;52.142;9.960;2024-02-26T01:21:24;99261.78;;;1.76;100.00
39443;BME280;25147;52.142;9.960;2024-02-26T01:23:52;99239.41;;;1.58;100.00
39443;BME280;25147;52.142;9.960;2024-02-26T01:26:19;99266.94;;;1.69;100.00
39443;BME280;25147;52.142;9.960;2024-02-26T01:28:48;99213.63;;;1.42;100.00
39443;BME280;25147;52.142;9.960;2024-02-26T01:31:16;99272.97;;;1.77;100.00
39443;BME280;25147;52.142;9.960;2024-02-26T01:33:43;99256.63;;;1.70;100.00
39443;BME280;25147;52.142;9.960;2024-02-26T01:36:10;99253.19;;;1.68;100.00
39443;BME280;25147;52.142;9.960;2024-02-26T01:38:37;99217.94;;;1.58;100.00
39443;BME280;25147;52.142;9.960;2024-02-26T01:41:03;99137.09;;;1.19;100.00
39443;BME280;25147;52.142;9.960;2024-02-26T01:43:30;99246.31;;;1.83;100.00
39443;BME280;25147;52.142;9.960;2024-02-26T01:45:57;99239.44;;;1.75;100.00
39443;BME280;25147;52.142;9.960;2024-02-26T01:48:26;99205.91;;;1.62;100.00
39443;BME280;25147;52.142;9.960;2024-02-26T01:50:53;99233.41;;;1.72;100.00
39443;BME280;25147;52.142;9.960;2024-02-26T01:53:20;99247.19;;;1.74;100.00
39443;BME280;25147;52.142;9.960;2024-02-26T01:55:47;99222.22;;;1.62;100.00
39443;BME280;25147;52.142;9.960;2024-02-26T01:58:14;99221.38;;;1.68;100.00
39443;BME280;25147;52.142;9.960;2024-02-26T02:00:41;99248.03;;;1.82;100.00
39443;BME280;25147;52.142;9.960;2024-02-26T02:03:08;99260.94;;;1.82;100.00
39443;BME280;25147;52.142;9.960;2024-02-26T02:05:36;99224.81;;;1.60;100.00
39443;BME280;25147;52.142;9.960;2024-02-26T02:08:07;99255.78;;;1.76;100.00
39443;BME280;25147;52.142;9.960;2024-02-26T02:10:35;99258.34;;;1.74;100.00
39443;BME280;25147;52.142;9.960;2024-02-26T02:13:02;99242.88;;;1.68;100.00
39443;BME280;25147;52.142;9.960;2024-02-26T02:15:28;99205.88;;;1.48;100.00
39443;BME280;25147;52.142;9.960;2024-02-26T02:17:55;99265.22;;;1.77;100.00
39443;BME280;25147;52.142;9.960;2024-02-26T02:20:26;99234.28;;;1.62;100.00
39443;BME280;25147;52.142;9.960;2024-02-26T02:22:58;99236.00;;;1.67;100.00
39443;BME280;25147;52.142;9.960;2024-02-26T02:25:25;99229.97;;;1.57;100.00
39443;BME280;25147;52.142;9.960;2024-02-26T02:27:53;99260.94;;;1.76;100.00
39443;BME280;25147;52.142;9.960;2024-02-26T02:30:20;99245.47;;;1.65;100.00
39443;BME280;25147;52.142;9.960;2024-02-26T02:32:48;99223.09;;;1.47;100.00
39443;BME280;25147;52.142;9.960;2024-02-26T02:35:15;99209.31;;;1.36;100.00
39443;BME280;25147;52.142;9.960;2024-02-26T02:37:43;99168.88;;;1.09;100.00
39443;BME280;25147;52.142;9.960;2024-02-26T02:40:10;99239.44;;;1.55;100.00
39443;BME280;25147;52.142;9.960;2024-02-26T02:42:37;99239.41;;;1.48;100.00
39443;BME280;25147;52.142;9.960;2024-02-26T02:45:04;99225.66;;;1.43;100.00
39443;BME280;25147;52.142;9.960;2024-02-26T02:47:31;99254.03;;;1.58;100.00
39443;BME280;25147;52.142;9.960;2024-02-26T02:49:58;99265.22;;;1.55;100.00
39443;BME280;25147;52.142;9.960;2024-02-26T02:52:25;99260.91;;;1.47;100.00
39443;BME280;25147;52.142;9.960;2024-02-26T02:54:53;99217.88;;;1.15;100.00
39443;BME280;25147;52.142;9.960;2024-02-26T02:57:20;99224.75;;;1.30;100.00
39443;BME280;25147;52.142;9.960;2024-02-26T02:59:46;99254.88;;;1.46;100.00
39443;BME280;25147;52.142;9.960;2024-02-26T03:02:13;99265.22;;;1.57;100.00
39443;BME280;25147;52.142;9.960;2024-02-26T03:04:40;99179.16;;;1.01;100.00
39443;BME280;25147;52.142;9.960;2024-02-26T03:07:06;99254.88;;;1.48;100.00
39443;BME280;25147;52.142;9.960;2024-02-26T03:09:33;99211.03;;;1.25;100.00
39443;BME280;25147;52.142;9.960;2024-02-26T03:12:01;99231.66;;;1.31;100.00
39443;BME280;25147;52.142;9.960;2024-02-26T03:14:27;99256.63;;;1.47;100.00
39443;BME280;25147;52.142;9.960;2024-02-26T03:16:54;99236.81;;;1.35;100.00
39443;BME280;25147;52.142;9.960;2024-02-26T03:19:21;99272.09;;;1.49;100.00
39443;BME280;25147;52.142;9.960;2024-02-26T03:21:48;99265.22;;;1.51;100.00
39443;BME280;25147;52.142;9.960;2024-02-26T03:24:15;99249.75;;;1.45;100.00
39443;BME280;25147;52.142;9.960;2024-02-26T03:26:42;99185.19;;;1.05;100.00
39443;BME280;25147;52.142;9.960;2024-02-26T03:29:10;99272.97;;;1.55;100.00
39443;BME280;25147;52.142;9.960;2024-02-26T03:31:37;99251.44;;;1.52;100.00
39443;BME280;25147;52.142;9.960;2024-02-26T03:34:04;99261.78;;;1.58;100.00
39443;BME280;25147;52.142;9.960;2024-02-26T03:36:30;99199.00;;;1.25;100.00
39443;BME280;25147;52.142;9.960;2024-02-26T03:38:57;99267.81;;;1.60;100.00
39443;BME280;25147;52.142;9.960;2024-02-26T03:41:24;99213.59;;;1.35;100.00
39443;BME280;25147;52.142;9.960;2024-02-26T03:43:51;99250.59;;;1.54;100.00
39443;BME280;25147;52.142;9.960;2024-02-26T03:46:20;99260.94;;;1.64;100.00
39443;BME280;25147;52.142;9.960;2024-02-26T03:48:46;99209.31;;;1.39;100.00
39443;BME280;25147;52.142;9.960;2024-02-26T03:51:13;99241.16;;;1.59;100.00
39443;BME280;25147;52.142;9.960;2024-02-26T03:53:40;99242.03;;;1.63;100.00
39443;BME280;25147;52.142;9.960;2024-02-26T03:56:07;99236.00;;;1.66;100.00
39443;BME280;25147;52.142;9.960;2024-02-26T03:58:34;99255.75;;;1.79;100.00
39443;BME280;25147;52.142;9.960;2024-02-26T04:01:01;99174.94;;;1.38;100.00
39443;BME280;25147;52.142;9.960;2024-02-26T04:03:31;99260.94;;;1.91;100.00
39443;BME280;25147;52.142;9.960;2024-02-26T04:05:58;99272.13;;;2.07;100.00
39443;BME280;25147;52.142;9.960;2024-02-26T04:08:25;99255.78;;;2.04;100.00
39443;BME280;25147;52.142;9.960;2024-02-26T04:10:52;99266.97;;;2.09;100.00
39443;BME280;25147;52.142;9.960;2024-02-26T04:13:19;99226.53;;;1.94;100.00
39443;BME280;25147;52.142;9.960;2024-02-26T04:15:46;99190.41;;;1.72;100.00
39443;BME280;25147;52.142;9.960;2024-02-26T04:18:13;99272.97;;;2.31;100.00
39443;BME280;25147;52.142;9.960;2024-02-26T04:20:42;99249.75;;;2.15;100.00
39443;BME280;25147;52.142;9.960;2024-02-26T04:23:08;99243.72;;;2.13;100.00
39443;BME280;25147;52.142;9.960;2024-02-26T04:25:35;99255.75;;;2.24;100.00
39443;BME280;25147;52.142;9.960;2024-02-26T04:28:02;99265.22;;;2.32;100.00
39443;BME280;25147;52.142;9.960;2024-02-26T04:30:29;99235.97;;;2.16;100.00
39443;BME280;25147;52.142;9.960;2024-02-26T04:32:55;99261.78;;;2.29;100.00
39443;BME280;25147;52.142;9.960;2024-02-26T04:35:22;99295.31;;;2.46;100.00
39443;BME280;25147;52.142;9.960;2024-02-26T04:37:51;99276.41;;;2.33;100.00
39443;BME280;25147;52.142;9.960;2024-02-26T04:40:17;99293.59;;;2.34;100.00
39443;BME280;25147;52.142;9.960;2024-02-26T04:42:44;99275.56;;;2.23;100.00
39443;BME280;25147;52.142;9.960;2024-02-26T04:45:11;99299.66;;;2.34;100.00
39443;BME280;25147;52.142;9.960;2024-02-26T04:47:38;99285.00;;;2.26;100.00
39443;BME280;25147;52.142;9.960;2024-02-26T04:50:05;99299.66;;;2.28;100.00
39443;BME280;25147;52.142;9.960;2024-02-26T04:52:32;99242.03;;;1.88;100.00
39443;BME280;25147;52.142;9.960;2024-02-26T04:55:00;99310.84;;;2.30;100.00
39443;BME280;25147;52.142;9.960;2024-02-26T04:57:28;99310.00;;;2.27;100.00
39443;BME280;25147;52.142;9.960;2024-02-26T04:59:54;99325.47;;;2.34;100.00
39443;BME280;25147;52.142;9.960;2024-02-26T05:02:21;99292.75;;;2.13;100.00
39443;BME280;25147;52.142;9.960;2024-02-26T05:04:48;99250.63;;;1.94;100.00
39443;BME280;25147;52.142;9.960;2024-02-26T05:07:15;99276.44;;;1.96;100.00
39443;BME280;25147;52.142;9.960;2024-02-26T05:09:43;99262.66;;;1.89;100.00
39443;BME280;25147;52.142;9.960;2024-02-26T05:12:11;99297.94;;;2.01;100.00
39443;BME280;25147;52.142;9.960;2024-02-26T05:14:38;99266.97;;;1.92;100.00
39443;BME280;25147;52.142;9.960;2024-02-26T05:17:05;99314.28;;;2.11;100.00
39443;BME280;25147;52.142;9.960;2024-02-26T05:19:32;99327.22;;;2.14;100.00
39443;BME280;25147;52.142;9.960;2024-02-26T05:21:59;99294.47;;;1.85;100.00
39443;BME280;25147;52.142;9.960;2024-02-26T05:24:26;99329.78;;;2.09;100.00
39443;BME280;25147;52.142;9.960;2024-02-26T05:26:53;99341.81;;;2.07;100.00
39443;BME280;25147;52.142;9.960;2024-02-26T05:29:21;99338.38;;;2.00;100.00
39443;BME280;25147;52.142;9.960;2024-02-26T05:31:48;99325.47;;;1.94;100.00
39443;BME280;25147;52.142;9.960;2024-02-26T05:34:15;99309.09;;;1.83;100.00
39443;BME280;25147;52.142;9.960;2024-02-26T05:36:41;99338.38;;;1.90;100.00
39443;BME280;25147;52.142;9.960;2024-02-26T05:39:08;99256.59;;;1.39;100.00
39443;BME280;25147;52.142;9.960;2024-02-26T05:41:37;99339.22;;;1.95;100.00
39443;BME280;25147;52.142;9.960;2024-02-26T05:44:04;99329.75;;;1.85;100.00
39443;BME280;25147;52.142;9.960;2024-02-26T05:46:32;99310.81;;;1.76;100.00
39443;BME280;25147;52.142;9.960;2024-02-26T05:48:59;99357.28;;;1.93;100.00
39443;BME280;25147;52.142;9.960;2024-02-26T05:51:26;99356.44;;;1.94;100.00
39443;BME280;25147;52.142;9.960;2024-02-26T05:53:52;99328.91;;;1.86;100.00
39443;BME280;25147;52.142;9.960;2024-02-26T05:56:21;99326.28;;;1.81;100.00
39443;BME280;25147;52.142;9.960;2024-02-26T05:58:47;99328.03;;;1.94;100.00
39443;BME280;25147;52.142;9.960;2024-02-26T06:01:15;99312.53;;;1.85;100.00
39443;BME280;25147;52.142;9.960;2024-02-26T06:03:44;99348.72;;;2.04;100.00
39443;BME280;25147;52.142;9.960;2024-02-26T06:06:11;99337.50;;;1.97;100.00
39443;BME280;25147;52.142;9.960;2024-02-26T06:08:38;99352.13;;;1.95;100.00
39443;BME280;25147;52.142;9.960;2024-02-26T06:11:05;99346.13;;;1.96;100.00
39443;BME280;25147;52.142;9.960;2024-02-26T06:13:33;99360.72;;;1.91;100.00
39443;BME280;25147;52.142;9.960;2024-02-26T06:16:00;99374.50;;;1.96;100.00
39443;BME280;25147;52.142;9.960;2024-02-26T06:18:27;99384.84;;;2.07;100.00
39443;BME280;25147;52.142;9.960;2024-02-26T06:20:56;99386.56;;;2.09;100.00
39443;BME280;25147;52.142;9.960;2024-02-26T06:23:23;99346.97;;;1.89;100.00
39443;BME280;25147;52.142;9.960;2024-02-26T06:25:49;99366.78;;;2.02;100.00
39443;BME280;25147;52.142;9.960;2024-02-26T06:31:59;99311.66;;;1.66;100.00
39443;BME280;25147;52.142;9.960;2024-02-26T06:34:53;99316.84;;;1.68;100.00
39443;BME280;25147;52.142;9.960;2024-02-26T06:37:21;99402.94;;;2.25;100.00
39443;BME280;25147;52.142;9.960;2024-02-26T06:42:46;99220.47;;;1.33;100.00
39443;BME280;25147;52.142;9.960;2024-02-26T06:45:14;99333.22;;;1.94;100.00
39443;BME280;25147;52.142;9.960;2024-02-26T06:47:40;99404.69;;;2.37;100.00
39443;BME280;25147;52.142;9.960;2024-02-26T06:50:08;99404.66;;;2.48;100.00
39443;BME280;25147;52.142;9.960;2024-02-26T06:52:37;99392.63;;;2.34;100.00
39443;BME280;25147;52.142;9.960;2024-02-26T06:55:04;99396.06;;;2.33;100.00
39443;BME280;25147;52.142;9.960;2024-02-26T06:57:33;99411.56;;;2.46;100.00
39443;BME280;25147;52.142;9.960;2024-02-26T07:00:00;99393.47;;;2.33;100.00
39443;BME280;25147;52.142;9.960;2024-02-26T07:02:32;99399.50;;;2.37;100.00
39443;BME280;25147;52.142;9.960;2024-02-26T07:04:59;99406.41;;;2.47;100.00
39443;BME280;25147;52.142;9.960;2024-02-26T07:07:26;99425.34;;;2.52;100.00
39443;BME280;25147;52.142;9.960;2024-02-26T07:09:54;99441.72;;;2.64;100.00
39443;BME280;25147;52.142;9.960;2024-02-26T07:12:21;99452.06;;;2.73;100.00
39443;BME280;25147;52.142;9.960;2024-02-26T07:14:49;99457.22;;;2.76;100.00
39443;BME280;25147;52.142;9.960;2024-02-26T07:17:17;99431.38;;;2.70;100.00
39443;BME280;25147;52.142;9.960;2024-02-26T07:19:59;99275.56;;;1.68;100.00
39443;BME280;25147;52.142;9.960;2024-02-26T07:22:26;99451.16;;;2.85;100.00
39443;BME280;25147;52.142;9.960;2024-02-26T07:24:53;99369.38;;;2.37;100.00
39443;BME280;25147;52.142;9.960;2024-02-26T07:27:20;99416.72;;;2.70;100.00
39443;BME280;25147;52.142;9.960;2024-02-26T07:29:46;99452.03;;;2.90;100.00
39443;BME280;25147;52.142;9.960;2024-02-26T07:32:13;99446.88;;;2.91;100.00
39443;BME280;25147;52.142;9.960;2024-02-26T07:34:41;99436.53;;;2.85;100.00
39443;BME280;25147;52.142;9.960;2024-02-26T07:37:11;99424.50;;;2.81;100.00
39443;BME280;25147;52.142;9.960;2024-02-26T07:39:38;99401.22;;;2.70;100.00
39443;BME280;25147;52.142;9.960;2024-02-26T07:42:05;99440.81;;;2.98;100.00
39443;BME280;25147;52.142;9.960;2024-02-26T07:44:32;99392.63;;;2.71;100.00
39443;BME280;25147;52.142;9.960;2024-02-26T07:47:03;99362.47;;;2.56;100.00
39443;BME280;25147;52.142;9.960;2024-02-26T07:49:29;99445.09;;;3.13;100.00
39443;BME280;25147;52.142;9.960;2024-02-26T07:52:01;99413.25;;;3.00;100.00
39443;BME280;25147;52.142;9.960;2024-02-26T07:54:29;99451.13;;;3.25;100.00
39443;BME280;25147;52.142;9.960;2024-02-26T07:56:56;99446.81;;;3.30;100.00
39443;BME280;25147;52.142;9.960;2024-02-26T07:59:23;99451.97;;;3.36;100.00
39443;BME280;25147;52.142;9.960;2024-02-26T08:01:50;99450.22;;;3.41;100.00
39443;BME280;25147;52.142;9.960;2024-02-26T08:04:17;99446.75;;;3.47;100.00
39443;BME280;25147;52.142;9.960;2024-02-26T08:06:44;99403.72;;;3.24;100.00
39443;BME280;25147;52.142;9.960;2024-02-26T08:09:15;99259.16;;;2.46;100.00
39443;BME280;25147;52.142;9.960;2024-02-26T08:11:43;99473.44;;;3.66;100.00
39443;BME280;25147;52.142;9.960;2024-02-26T08:14:10;99065.78;;;1.44;100.00
39443;BME280;25147;52.142;9.960;2024-02-26T08:16:37;99307.31;;;2.85;100.00
39443;BME280;25147;52.142;9.960;2024-02-26T08:19:04;99418.25;;;3.57;100.00
39443;BME280;25147;52.142;9.960;2024-02-26T08:21:30;99431.13;;;3.71;100.00
39443;BME280;25147;52.142;9.960;2024-02-26T08:23:57;99416.50;;;3.66;100.00
39443;BME280;25147;52.142;9.960;2024-02-26T08:26:24;99447.44;;;3.90;100.00
39443;BME280;25147;52.142;9.960;2024-02-26T08:28:52;99366.56;;;3.48;100.00
39443;BME280;25147;52.142;9.960;2024-02-26T08:31:21;99412.97;;;3.84;100.00
39443;BME280;25147;52.142;9.960;2024-02-26T08:33:49;99419.81;;;3.92;100.00
39443;BME280;25147;52.142;9.960;2024-02-26T08:36:15;99411.19;;;3.92;100.00
39443;BME280;25147;52.142;9.960;2024-02-26T08:38:42;99404.28;;;3.95;100.00
39443;BME280;25147;52.142;9.960;2024-02-26T08:41:09;99363.84;;;3.71;100.00
39443;BME280;25147;52.142;9.960;2024-02-26T08:43:37;99420.59;;;4.10;100.00
39443;BME280;25147;52.142;9.960;2024-02-26T08:46:08;99445.59;;;4.15;100.00
39443;BME280;25147;52.142;9.960;2024-02-26T08:48:35;99448.16;;;4.20;100.00
39443;BME280;25147;52.142;9.960;2024-02-26T08:51:05;99427.47;;;4.15;100.00
39443;BME280;25147;52.142;9.960;2024-02-26T08:53:31;99442.13;;;4.15;100.00
39443;BME280;25147;52.142;9.960;2024-02-26T08:56:18;99424.88;;;4.14;100.00
39443;BME280;25147;52.142;9.960;2024-02-26T08:58:46;99446.34;;;4.33;100.00
39443;BME280;25147;52.142;9.960;2024-02-26T09:01:15;99450.56;;;4.46;100.00
39443;BME280;25147;52.142;9.960;2024-02-26T09:03:42;99405.78;;;4.27;100.00
39443;BME280;25147;52.142;9.960;2024-02-26T09:06:09;99424.72;;;4.40;100.00
39443;BME280;25147;52.142;9.960;2024-02-26T09:08:37;99432.44;;;4.41;100.00
39443;BME280;25147;52.142;9.960;2024-02-26T09:11:04;99431.59;;;4.44;100.00
39443;BME280;25147;52.142;9.960;2024-02-26T09:13:31;99460.84;;;4.60;100.00
39443;BME280;25147;52.142;9.960;2024-02-26T09:15:57;99460.81;;;4.61;100.00
39443;BME280;25147;52.142;9.960;2024-02-26T09:18:26;99415.25;;;4.33;100.00
39443;BME280;25147;52.142;9.960;2024-02-26T09:20:54;99465.16;;;4.61;100.00
39443;BME280;25147;52.142;9.960;2024-02-26T09:23:21;99465.13;;;4.62;100.00
39443;BME280;25147;52.142;9.960;2024-02-26T09:25:47;99455.66;;;4.58;100.00
39443;BME280;25147;52.142;9.960;2024-02-26T09:28:14;99473.69;;;4.75;100.00
39443;BME280;25147;52.142;9.960;2024-02-26T09:30:42;99471.94;;;4.79;100.00
39443;BME280;25147;52.142;9.960;2024-02-26T09:33:09;99470.22;;;4.75;100.00
39443;BME280;25147;52.142;9.960;2024-02-26T09:35:38;99470.19;;;4.79;100.00
39443;BME280;25147;52.142;9.960;2024-02-26T09:38:05;99483.94;;;4.86;100.00
39443;BME280;25147;52.142;9.960;2024-02-26T09:40:32;99464.09;;;4.85;100.00
39443;BME280;25147;52.142;9.960;2024-02-26T09:43:00;99478.72;;;4.94;100.00
39443;BME280;25147;52.142;9.960;2024-02-26T09:45:28;99497.59;;;5.08;100.00
39443;BME280;25147;52.142;9.960;2024-02-26T09:47:57;99487.22;;;5.07;100.00
39443;BME280;25147;52.142;9.960;2024-02-26T09:50:24;99448.53;;;4.85;100.00
39443;BME280;25147;52.142;9.960;2024-02-26T09:52:52;99497.53;;;5.17;100.00
39443;BME280;25147;52.142;9.960;2024-02-26T09:55:20;99508.72;;;5.22;100.00
39443;BME280;25147;52.142;9.960;2024-02-26T09:57:48;99524.28;;;5.26;100.00
39443;BME280;25147;52.142;9.960;2024-02-26T10:00:18;99503.53;;;5.21;100.00
39443;BME280;25147;52.142;9.960;2024-02-26T10:02:45;99476.91;;;5.05;100.00
39443;BME280;25147;52.142;9.960;2024-02-26T10:05:14;99512.09;;;5.31;100.00
39443;BME280;25147;52.142;9.960;2024-02-26T10:07:44;99514.69;;;5.34;100.00
39443;BME280;25147;52.142;9.960;2024-02-26T10:10:12;99524.09;;;5.44;100.00
39443;BME280;25147;52.142;9.960;2024-02-26T10:12:40;99525.78;;;5.47;100.00
39443;BME280;25147;52.142;9.960;2024-02-26T10:15:07;99499.97;;;5.34;100.00
39443;BME280;25147;52.142;9.960;2024-02-26T10:17:34;99536.16;;;5.50;100.00
39443;BME280;25147;52.142;9.960;2024-02-26T10:20:12;99528.31;;;5.53;100.00
39443;BME280;25147;52.142;9.960;2024-02-26T10:22:40;99524.88;;;5.54;100.00
39443;BME280;25147;52.142;9.960;2024-02-26T10:25:08;99521.44;;;5.49;100.00
39443;BME280;25147;52.142;9.960;2024-02-26T10:27:36;99499.09;;;5.35;100.00
39443;BME280;25147;52.142;9.960;2024-02-26T10:30:04;99536.97;;;5.53;100.00
39443;BME280;25147;52.142;9.960;2024-02-26T10:32:32;99486.19;;;5.28;100.00
39443;BME280;25147;52.142;9.960;2024-02-26T10:34:58;99539.56;;;5.55;100.00
39443;BME280;25147;52.142;9.960;2024-02-26T10:37:25;99515.47;;;5.40;100.00
39443;BME280;25147;52.142;9.960;2024-02-26T10:39:52;99531.78;;;5.53;100.00
39443;BME280;25147;52.142;9.960;2024-02-26T10:42:19;99515.41;;;5.47;100.00
39443;BME280;25147;52.142;9.960;2024-02-26T10:44:47;99499.91;;;5.39;100.00
39443;BME280;25147;52.142;9.960;2024-02-26T10:47:15;99529.16;;;5.58;100.00
39443;BME280;25147;52.142;9.960;2024-02-26T10:49:45;99492.94;;;5.44;100.00
39443;BME280;25147;52.142;9.960;2024-02-26T10:52:13;99527.38;;;5.61;100.00
39443;BME280;25147;52.142;9.960;2024-02-26T10:54:41;99515.34;;;5.56;100.00
39443;BME280;25147;52.142;9.960;2024-02-26T10:57:11;99427.59;;;5.05;100.00
39443;BME280;25147;52.142;9.960;2024-02-26T10:59:39;99502.38;;;5.51;100.00
39443;BME280;25147;52.142;9.960;2024-02-26T11:02:09;99533.31;;;5.74;100.00
39443;BME280;25147;52.142;9.960;2024-02-26T11:04:37;99516.13;;;5.64;100.00
39443;BME280;25147;52.142;9.960;2024-02-26T11:07:05;99544.44;;;5.86;100.00
39443;BME280;25147;52.142;9.960;2024-02-26T11:09:33;99539.16;;;5.95;100.00
39443;BME280;25147;52.142;9.960;2024-02-26T11:12:01;99552.94;;;6.03;100.00
39443;BME280;25147;52.142;9.960;2024-02-26T11:14:33;99523.53;;;5.99;100.00
39443;BME280;25147;52.142;9.960;2024-02-26T11:17:01;99452.09;;;5.60;100.00
39443;BME280;25147;52.142;9.960;2024-02-26T11:19:30;99539.81;;;6.12;100.00
39443;BME280;25147;52.142;9.960;2024-02-26T11:21:58;99551.03;;;6.17;100.00
39443;BME280;25147;52.142;9.960;2024-02-26T11:24:27;99514.75;;;6.08;100.00
39443;BME280;25147;52.142;9.960;2024-02-26T11:26:56;99529.31;;;6.21;100.00
39443;BME280;25147;52.142;9.960;2024-02-26T11:29:28;99543.84;;;6.35;100.00
39443;BME280;25147;52.142;9.960;2024-02-26T11:31:58;99520.66;;;6.21;100.00
39443;BME280;25147;52.142;9.960;2024-02-26T11:34:26;99531.75;;;6.34;100.00
39443;BME280;25147;52.142;9.960;2024-02-26T11:36:55;99544.78;;;6.31;100.00
39443;BME280;25147;52.142;9.960;2024-02-26T11:39:22;99500.81;;;6.14;100.00
39443;BME280;25147;52.142;9.960;2024-02-26T11:41:50;99533.50;;;6.33;100.00
39443;BME280;25147;52.142;9.960;2024-02-26T11:44:28;99563.63;;;6.50;100.00
39443;BME280;25147;52.142;9.960;2024-02-26T11:46:56;99549.81;;;6.45;100.00
39443;BME280;25147;52.142;9.960;2024-02-26T11:49:31;99557.53;;;6.49;100.00
39443;BME280;25147;52.142;9.960;2024-02-26T11:51:59;99560.09;;;6.54;100.00
39443;BME280;25147;52.142;9.960;2024-02-26T11:54:53;99555.75;;;6.54;100.00
39443;BME280;25147;52.142;9.960;2024-02-26T11:57:26;99558.31;;;6.56;100.00
39443;BME280;25147;52.142;9.960;2024-02-26T11:59:54;99527.31;;;6.42;100.00
39443;BME280;25147;52.142;9.960;2024-02-26T12:02:40;99554.78;;;6.61;100.00
39443;BME280;25147;52.142;9.960;2024-02-26T12:05:10;99568.56;;;6.67;100.00
39443;BME280;25147;52.142;9.960;2024-02-26T12:07:43;99551.31;;;6.61;100.00
39443;BME280;25147;52.142;9.960;2024-02-26T12:10:26;99569.22;;;6.82;100.00
39443;BME280;25147;52.142;9.960;2024-02-26T12:12:58;99532.25;;;6.60;100.00
39443;BME280;25147;52.142;9.960;2024-02-26T12:15:30;99552.00;;;6.74;100.00
39443;BME280;25147;52.142;9.960;2024-02-26T12:17:58;99578.59;;;6.93;100.00
39443;BME280;25147;52.142;9.960;2024-02-26T12:20:26;99566.50;;;6.90;100.00
39443;BME280;25147;52.142;9.960;2024-02-26T12:22:55;99568.84;;;7.06;100.00
39443;BME280;25147;52.142;9.960;2024-02-26T12:25:24;99548.19;;;6.96;100.00
39443;BME280;25147;52.142;9.960;2024-02-26T12:27:51;99489.69;;;6.68;100.00
39443;BME280;25147;52.142;9.960;2024-02-26T12:30:18;99551.53;;;7.05;100.00
39443;BME280;25147;52.142;9.960;2024-02-26T12:32:45;99543.72;;;7.05;100.00
39443;BME280;25147;52.142;9.960;2024-02-26T12:35:14;99546.34;;;7.05;99.84
39443;BME280;25147;52.142;9.960;2024-02-26T12:37:41;99568.56;;;7.24;99.90
39443;BME280;25147;52.142;9.960;2024-02-26T12:40:11;99564.16;;;7.28;99.39
39443;BME280;25147;52.142;9.960;2024-02-26T12:42:38;99571.22;;;7.21;99.07
39443;BME280;25147;52.142;9.960;2024-02-26T12:45:07;99480.13;;;6.68;98.50
39443;BME280;25147;52.142;9.960;2024-02-26T12:47:36;99574.59;;;7.28;98.85
39443;BME280;25147;52.142;9.960;2024-02-26T12:50:04;99574.56;;;7.31;98.23
39443;BME280;25147;52.142;9.960;2024-02-26T12:52:32;99547.06;;;7.13;98.54
39443;BME280;25147;52.142;9.960;2024-02-26T12:55:00;99566.78;;;7.28;99.10
39443;BME280;25147;52.142;9.960;2024-02-26T12:57:29;99578.03;;;7.30;99.50
39443;BME280;25147;52.142;9.960;2024-02-26T12:59:57;99553.88;;;7.20;99.39
39443;BME280;25147;52.142;9.960;2024-02-26T13:02:24;99580.53;;;7.36;99.57
39443;BME280;25147;52.142;9.960;2024-02-26T13:04:51;99557.41;;;7.17;99.76
39443;BME280;25147;52.142;9.960;2024-02-26T13:07:18;99585.69;;;7.39;99.02
39443;BME280;25147;52.142;9.960;2024-02-26T13:09:45;99591.91;;;7.30;98.50